sensor_id;sensor_type;location;lat;lon;timestamp;temperature;humidity
6536;DHT22;34330;52.08032700;5.40923460;2023-08-07T00:00:11;17.00;96.80
6536;DHT22;34330;52.08032700;5.40923460;2023-08-07T00:02:39;17.00;96.90
6536;DHT22;34330;52.08032700;5.40923460;2023-08-07T00:05:09;17.10;96.90
6536;DHT22;34330;52.08032700;5.40923460;2023-08-07T00:07:37;17.00;97.00
6536;DHT22;34330;52.08032700;5.40923460;2023-08-07T00:10:05;17.00;97.00
6536;DHT22;34330;52.08032700;5.40923460;2023-08-07T00:12:34;17.10;97.10
6536;DHT22;34330;52.08032700;5.40923460;2023-08-07T00:15:03;17.10;97.10
6536;DHT22;34330;52.08032700;5.40923460;2023-08-07T00:17:31;17.10;97.20
6536;DHT22;34330;52.08032700;5.40923460;2023-08-07T00:19:59;17.10;97.20
6536;DHT22;34330;52.08032700;5.40923460;2023-08-07T00:22:28;17.10;97.10
6536;DHT22;34330;52.08032700;5.40923460;2023-08-07T00:24:56;17.10;97.20
6536;DHT22;34330;52.08032700;5.40923460;2023-08-07T00:27:24;17.10;97.20
6536;DHT22;34330;52.08032700;5.40923460;2023-08-07T00:29:52;17.10;97.20
6536;DHT22;34330;52.08032700;5.40923460;2023-08-07T00:32:20;17.10;97.20
6536;DHT22;34330;52.08032700;5.40923460;2023-08-07T00:34:48;17.10;97.20
6536;DHT22;34330;52.08032700;5.40923460;2023-08-07T00:37:16;17.10;97.20
6536;DHT22;34330;52.08032700;5.40923460;2023-08-07T00:39:45;17.10;97.10
6536;DHT22;34330;52.08032700;5.40923460;2023-08-07T00:42:13;17.20;97.20
6536;DHT22;34330;52.08032700;5.40923460;2023-08-07T00:44:41;17.20;97.10
6536;DHT22;34330;52.08032700;5.40923460;2023-08-07T00:47:09;17.20;97.40
6536;DHT22;34330;52.08032700;5.40923460;2023-08-07T00:49:38;17.10;97.10
6536;DHT22;34330;52.08032700;5.40923460;2023-08-07T00:52:10;17.10;96.90
6536;DHT22;34330;52.08032700;5.40923460;2023-08-07T00:54:38;15.00;95.90
6536;DHT22;34330;52.08032700;5.40923460;2023-08-07T00:57:10;17.10;96.90
6536;DHT22;34330;52.08032700;5.40923460;2023-08-07T00:59:39;17.10;97.00
6536;DHT22;34330;52.08032700;5.40923460;2023-08-07T01:02:09;15.30;96.10
6536;DHT22;34330;52.08032700;5.40923460;2023-08-07T01:04:37;17.10;97.10
6536;DHT22;34330;52.08032700;5.40923460;2023-08-07T01:07:06;17.00;97.00
6536;DHT22;34330;52.08032700;5.40923460;2023-08-07T01:09:34;17.10;97.10
6536;DHT22;34330;52.08032700;5.40923460;2023-08-07T01:12:09;17.10;97.00
6536;DHT22;34330;52.08032700;5.40923460;2023-08-07T01:14:46;17.00;97.10
6536;DHT22;34330;52.08032700;5.40923460;2023-08-07T01:17:17;17.00;97.40
6536;DHT22;34330;52.08032700;5.40923460;2023-08-07T01:19:47;17.10;97.10
6536;DHT22;34330;52.08032700;5.40923460;2023-08-07T01:22:19;17.00;97.00
6536;DHT22;34330;52.08032700;5.40923460;2023-08-07T01:24:49;17.00;97.00
6536;DHT22;34330;52.08032700;5.40923460;2023-08-07T01:27:30;17.10;97.00
6536;DHT22;34330;52.08032700;5.40923460;2023-08-07T01:30:08;17.00;97.00
6536;DHT22;34330;52.08032700;5.40923460;2023-08-07T01:32:43;17.00;97.00
6536;DHT22;34330;52.08032700;5.40923460;2023-08-07T01:35:15;17.00;97.30
6536;DHT22;34330;52.08032700;5.40923460;2023-08-07T01:37:45;17.00;97.00
6536;DHT22;34330;52.08032700;5.40923460;2023-08-07T01:40:15;17.00;96.90
6536;DHT22;34330;52.08032700;5.40923460;2023-08-07T01:42:44;17.00;96.90
6536;DHT22;34330;52.08032700;5.40923460;2023-08-07T01:45:14;17.00;96.90
6536;DHT22;34330;52.08032700;5.40923460;2023-08-07T01:47:42;17.10;97.30
6536;DHT22;34330;52.08032700;5.40923460;2023-08-07T01:50:10;17.00;96.80
6536;DHT22;34330;52.08032700;5.40923460;2023-08-07T01:52:38;17.00;97.10
6536;DHT22;34330;52.08032700;5.40923460;2023-08-07T01:55:08;17.10;96.80
6536;DHT22;34330;52.08032700;5.40923460;2023-08-07T01:57:36;17.10;96.80
6536;DHT22;34330;52.08032700;5.40923460;2023-08-07T02:00:05;17.00;96.70
6536;DHT22;34330;52.08032700;5.40923460;2023-08-07T02:02:35;17.00;96.70
6536;DHT22;34330;52.08032700;5.40923460;2023-08-07T02:05:03;17.00;96.60
6536;DHT22;34330;52.08032700;5.40923460;2023-08-07T02:07:32;17.00;96.60
6536;DHT22;34330;52.08032700;5.40923460;2023-08-07T02:10:00;17.00;96.60
6536;DHT22;34330;52.08032700;5.40923460;2023-08-07T02:12:29;17.00;96.60
6536;DHT22;34330;52.08032700;5.40923460;2023-08-07T02:14:58;17.00;96.60
6536;DHT22;34330;52.08032700;5.40923460;2023-08-07T02:17:27;16.90;96.70
6536;DHT22;34330;52.08032700;5.40923460;2023-08-07T02:19:56;16.90;97.00
6536;DHT22;34330;52.08032700;5.40923460;2023-08-07T02:22:28;16.90;96.90
6536;DHT22;34330;52.08032700;5.40923460;2023-08-07T02:24:56;16.90;96.70
6536;DHT22;34330;52.08032700;5.40923460;2023-08-07T02:27:24;16.90;96.80
6536;DHT22;34330;52.08032700;5.40923460;2023-08-07T02:29:53;17.00;96.80
6536;DHT22;34330;52.08032700;5.40923460;2023-08-07T02:32:21;17.00;96.70
6536;DHT22;34330;52.08032700;5.40923460;2023-08-07T02:34:49;16.90;96.70
6536;DHT22;34330;52.08032700;5.40923460;2023-08-07T02:37:17;16.90;96.70
6536;DHT22;34330;52.08032700;5.40923460;2023-08-07T02:39:47;16.90;96.70
6536;DHT22;34330;52.08032700;5.40923460;2023-08-07T02:42:15;16.90;96.70
6536;DHT22;34330;52.08032700;5.40923460;2023-08-07T02:44:43;16.90;96.70
6536;DHT22;34330;52.08032700;5.40923460;2023-08-07T02:47:13;16.90;96.70
6536;DHT22;34330;52.08032700;5.40923460;2023-08-07T02:49:41;16.90;96.70
6536;DHT22;34330;52.08032700;5.40923460;2023-08-07T02:52:09;16.90;96.70
6536;DHT22;34330;52.08032700;5.40923460;2023-08-07T02:54:37;16.90;96.60
6536;DHT22;34330;52.08032700;5.40923460;2023-08-07T02:57:05;17.00;96.70
6536;DHT22;34330;52.08032700;5.40923460;2023-08-07T02:59:33;16.90;96.60
6536;DHT22;34330;52.08032700;5.40923460;2023-08-07T03:02:01;16.90;96.70
6536;DHT22;34330;52.08032700;5.40923460;2023-08-07T03:04:31;17.00;96.80
6536;DHT22;34330;52.08032700;5.40923460;2023-08-07T03:07:00;17.00;96.90
6536;DHT22;34330;52.08032700;5.40923460;2023-08-07T03:09:28;17.00;96.90
6536;DHT22;34330;52.08032700;5.40923460;2023-08-07T03:11:56;17.00;96.90
6536;DHT22;34330;52.08032700;5.40923460;2023-08-07T03:14:31;17.00;97.00
6536;DHT22;34330;52.08032700;5.40923460;2023-08-07T03:16:59;17.00;97.00
6536;DHT22;34330;52.08032700;5.40923460;2023-08-07T03:19:28;17.00;97.10
6536;DHT22;34330;52.08032700;5.40923460;2023-08-07T03:22:00;17.00;97.00
6536;DHT22;34330;52.08032700;5.40923460;2023-08-07T03:24:28;17.00;97.00
6536;DHT22;34330;52.08032700;5.40923460;2023-08-07T03:26:56;17.00;96.90
6536;DHT22;34330;52.08032700;5.40923460;2023-08-07T03:29:24;17.00;97.10
6536;DHT22;34330;52.08032700;5.40923460;2023-08-07T03:31:52;17.00;97.10
6536;DHT22;34330;52.08032700;5.40923460;2023-08-07T03:34:20;17.00;97.10
6536;DHT22;34330;52.08032700;5.40923460;2023-08-07T03:36:48;17.00;97.50
6536;DHT22;34330;52.08032700;5.40923460;2023-08-07T03:39:18;16.90;97.10
6536;DHT22;34330;52.08032700;5.40923460;2023-08-07T03:41:46;17.00;97.30
6536;DHT22;34330;52.08032700;5.40923460;2023-08-07T03:44:14;16.90;97.20
6536;DHT22;34330;52.08032700;5.40923460;2023-08-07T03:46:42;16.90;97.30
6536;DHT22;34330;52.08032700;5.40923460;2023-08-07T03:49:09;16.90;97.20
6536;DHT22;34330;52.08032700;5.40923460;2023-08-07T03:51:37;16.90;97.20
6536;DHT22;34330;52.08032700;5.40923460;2023-08-07T03:54:06;16.90;97.20
6536;DHT22;34330;52.08032700;5.40923460;2023-08-07T03:56:36;16.90;97.50
6536;DHT22;34330;52.08032700;5.40923460;2023-08-07T03:59:05;16.90;97.20
6536;DHT22;34330;52.08032700;5.40923460;2023-08-07T04:01:35;16.90;97.60
6536;DHT22;34330;52.08032700;5.40923460;2023-08-07T04:04:03;16.90;97.30
6536;DHT22;34330;52.08032700;5.40923460;2023-08-07T04:06:32;16.80;97.30
6536;DHT22;34330;52.08032700;5.40923460;2023-08-07T04:09:00;16.30;97.10
6536;DHT22;34330;52.08032700;5.40923460;2023-08-07T04:11:30;16.80;97.40
6536;DHT22;34330;52.08032700;5.40923460;2023-08-07T04:14:01;16.90;97.50
6536;DHT22;34330;52.08032700;5.40923460;2023-08-07T04:16:30;16.90;97.50
6536;DHT22;34330;52.08032700;5.40923460;2023-08-07T04:18:59;16.90;97.50
6536;DHT22;34330;52.08032700;5.40923460;2023-08-07T04:21:29;16.90;97.50
6536;DHT22;34330;52.08032700;5.40923460;2023-08-07T04:24:00;18.20;98.00
6536;DHT22;34330;52.08032700;5.40923460;2023-08-07T04:26:34;16.90;97.60
6536;DHT22;34330;52.08032700;5.40923460;2023-08-07T04:29:04;16.90;97.70
6536;DHT22;34330;52.08032700;5.40923460;2023-08-07T04:31:31;16.90;97.80
6536;DHT22;34330;52.08032700;5.40923460;2023-08-07T04:34:01;16.90;97.80
6536;DHT22;34330;52.08032700;5.40923460;2023-08-07T04:36:28;17.10;97.90
6536;DHT22;34330;52.08032700;5.40923460;2023-08-07T04:38:56;16.90;97.80
6536;DHT22;34330;52.08032700;5.40923460;2023-08-07T04:41:24;16.90;97.70
6536;DHT22;34330;52.08032700;5.40923460;2023-08-07T04:43:54;16.90;97.80
6536;DHT22;34330;52.08032700;5.40923460;2023-08-07T04:46:23;17.00;97.90
6536;DHT22;34330;52.08032700;5.40923460;2023-08-07T04:48:51;17.00;97.90
6536;DHT22;34330;52.08032700;5.40923460;2023-08-07T04:51:21;17.00;97.80
6536;DHT22;34330;52.08032700;5.40923460;2023-08-07T04:53:49;17.00;97.80
6536;DHT22;34330;52.08032700;5.40923460;2023-08-07T04:56:17;17.00;98.10
6536;DHT22;34330;52.08032700;5.40923460;2023-08-07T04:58:45;17.00;97.80
6536;DHT22;34330;52.08032700;5.40923460;2023-08-07T05:01:14;17.00;97.80
6536;DHT22;34330;52.08032700;5.40923460;2023-08-07T05:03:43;17.10;97.90
6536;DHT22;34330;52.08032700;5.40923460;2023-08-07T05:06:11;17.10;97.90
6536;DHT22;34330;52.08032700;5.40923460;2023-08-07T05:08:39;17.10;97.80
6536;DHT22;34330;52.08032700;5.40923460;2023-08-07T05:11:07;17.20;97.90
6536;DHT22;34330;52.08032700;5.40923460;2023-08-07T05:13:35;17.10;97.70
6536;DHT22;34330;52.08032700;5.40923460;2023-08-07T05:16:03;17.10;97.80
6536;DHT22;34330;52.08032700;5.40923460;2023-08-07T05:18:31;17.20;97.80
6536;DHT22;34330;52.08032700;5.40923460;2023-08-07T05:21:01;17.20;97.90
6536;DHT22;34330;52.08032700;5.40923460;2023-08-07T05:23:29;17.20;97.90
6536;DHT22;34330;52.08032700;5.40923460;2023-08-07T05:25:57;17.20;97.80
6536;DHT22;34330;52.08032700;5.40923460;2023-08-07T05:28:25;17.20;97.70
6536;DHT22;34330;52.08032700;5.40923460;2023-08-07T05:30:54;17.20;97.70
6536;DHT22;34330;52.08032700;5.40923460;2023-08-07T05:33:22;17.20;97.80
6536;DHT22;34330;52.08032700;5.40923460;2023-08-07T05:35:50;17.30;97.70
6536;DHT22;34330;52.08032700;5.40923460;2023-08-07T05:38:20;17.30;97.70
6536;DHT22;34330;52.08032700;5.40923460;2023-08-07T05:40:48;17.30;97.60
6536;DHT22;34330;52.08032700;5.40923460;2023-08-07T05:43:17;17.20;97.50
6536;DHT22;34330;52.08032700;5.40923460;2023-08-07T05:45:45;17.20;97.40
6536;DHT22;34330;52.08032700;5.40923460;2023-08-07T05:48:13;17.20;97.50
6536;DHT22;34330;52.08032700;5.40923460;2023-08-07T05:50:41;17.20;97.50
6536;DHT22;34330;52.08032700;5.40923460;2023-08-07T05:53:09;17.20;97.50
6536;DHT22;34330;52.08032700;5.40923460;2023-08-07T05:55:40;17.20;97.50
6536;DHT22;34330;52.08032700;5.40923460;2023-08-07T05:58:09;17.20;97.60
6536;DHT22;34330;52.08032700;5.40923460;2023-08-07T06:00:37;17.20;97.60
6536;DHT22;34330;52.08032700;5.40923460;2023-08-07T06:03:05;17.20;97.60
6536;DHT22;34330;52.08032700;5.40923460;2023-08-07T06:05:33;17.20;97.50
6536;DHT22;34330;52.08032700;5.40923460;2023-08-07T06:08:02;17.20;97.50
6536;DHT22;34330;52.08032700;5.40923460;2023-08-07T06:10:30;17.20;97.50
6536;DHT22;34330;52.08032700;5.40923460;2023-08-07T06:13:00;17.20;97.50
6536;DHT22;34330;52.08032700;5.40923460;2023-08-07T06:15:29;17.20;97.50
6536;DHT22;34330;52.08032700;5.40923460;2023-08-07T06:18:00;17.30;97.50
6536;DHT22;34330;52.08032700;5.40923460;2023-08-07T06:20:28;17.30;97.60
6536;DHT22;34330;52.08032700;5.40923460;2023-08-07T06:22:56;17.30;97.60
6536;DHT22;34330;52.08032700;5.40923460;2023-08-07T06:25:25;17.30;97.70
6536;DHT22;34330;52.08032700;5.40923460;2023-08-07T06:27:54;17.30;98.10
6536;DHT22;34330;52.08032700;5.40923460;2023-08-07T06:30:23;17.30;98.20
6536;DHT22;34330;52.08032700;5.40923460;2023-08-07T06:32:51;17.40;98.00
6536;DHT22;34330;52.08032700;5.40923460;2023-08-07T06:35:19;17.40;98.00
6536;DHT22;34330;52.08032700;5.40923460;2023-08-07T06:37:48;17.50;98.10
6536;DHT22;34330;52.08032700;5.40923460;2023-08-07T06:40:16;17.50;98.00
6536;DHT22;34330;52.08032700;5.40923460;2023-08-07T06:42:44;17.50;98.00
6536;DHT22;34330;52.08032700;5.40923460;2023-08-07T06:45:13;17.60;98.10
6536;DHT22;34330;52.08032700;5.40923460;2023-08-07T06:47:42;17.60;98.00
6536;DHT22;34330;52.08032700;5.40923460;2023-08-07T06:50:10;17.90;98.10
6536;DHT22;34330;52.08032700;5.40923460;2023-08-07T06:52:38;17.80;98.00
6536;DHT22;34330;52.08032700;5.40923460;2023-08-07T06:55:07;17.80;97.90
6536;DHT22;34330;52.08032700;5.40923460;2023-08-07T06:57:35;17.80;97.60
6536;DHT22;34330;52.08032700;5.40923460;2023-08-07T07:00:04;17.90;97.80
6536;DHT22;34330;52.08032700;5.40923460;2023-08-07T07:02:33;17.80;98.10
6536;DHT22;34330;52.08032700;5.40923460;2023-08-07T07:05:03;17.90;98.40
6536;DHT22;34330;52.08032700;5.40923460;2023-08-07T07:07:31;18.00;98.60
6536;DHT22;34330;52.08032700;5.40923460;2023-08-07T07:09:59;18.00;98.10
6536;DHT22;34330;52.08032700;5.40923460;2023-08-07T07:12:28;18.20;97.90
6536;DHT22;34330;52.08032700;5.40923460;2023-08-07T07:14:59;17.80;97.50
6536;DHT22;34330;52.08032700;5.40923460;2023-08-07T07:17:30;18.30;97.10
6536;DHT22;34330;52.08032700;5.40923460;2023-08-07T07:19:58;18.30;96.80
6536;DHT22;34330;52.08032700;5.40923460;2023-08-07T07:22:30;18.50;96.70
6536;DHT22;34330;52.08032700;5.40923460;2023-08-07T07:24:58;18.30;96.20
6536;DHT22;34330;52.08032700;5.40923460;2023-08-07T07:27:26;18.30;96.30
6536;DHT22;34330;52.08032700;5.40923460;2023-08-07T07:29:54;18.20;96.40
6536;DHT22;34330;52.08032700;5.40923460;2023-08-07T07:32:24;18.20;96.50
6536;DHT22;34330;52.08032700;5.40923460;2023-08-07T07:34:53;18.10;96.60
6536;DHT22;34330;52.08032700;5.40923460;2023-08-07T07:37:22;18.10;96.80
6536;DHT22;34330;52.08032700;5.40923460;2023-08-07T07:39:51;18.10;97.00
6536;DHT22;34330;52.08032700;5.40923460;2023-08-07T07:42:19;18.10;97.20
6536;DHT22;34330;52.08032700;5.40923460;2023-08-07T07:44:48;18.10;97.30
6536;DHT22;34330;52.08032700;5.40923460;2023-08-07T07:47:16;18.00;97.30
6536;DHT22;34330;52.08032700;5.40923460;2023-08-07T07:49:46;18.10;97.40
6536;DHT22;34330;52.08032700;5.40923460;2023-08-07T07:52:15;18.10;97.40
6536;DHT22;34330;52.08032700;5.40923460;2023-08-07T07:54:43;18.20;97.40
6536;DHT22;34330;52.08032700;5.40923460;2023-08-07T07:57:12;18.20;97.10
6536;DHT22;34330;52.08032700;5.40923460;2023-08-07T07:59:40;18.20;97.00
6536;DHT22;34330;52.08032700;5.40923460;2023-08-07T08:02:08;18.20;96.90
6536;DHT22;34330;52.08032700;5.40923460;2023-08-07T08:04:36;18.20;97.20
6536;DHT22;34330;52.08032700;5.40923460;2023-08-07T08:07:05;18.20;97.40
6536;DHT22;34330;52.08032700;5.40923460;2023-08-07T08:09:33;18.30;97.70
6536;DHT22;34330;52.08032700;5.40923460;2023-08-07T08:12:02;18.30;98.00
6536;DHT22;34330;52.08032700;5.40923460;2023-08-07T08:14:31;18.40;98.30
6536;DHT22;34330;52.08032700;5.40923460;2023-08-07T08:17:19;18.50;98.50
6536;DHT22;34330;52.08032700;5.40923460;2023-08-07T08:19:47;18.60;98.40
6536;DHT22;34330;52.08032700;5.40923460;2023-08-07T08:22:17;18.70;98.40
6536;DHT22;34330;52.08032700;5.40923460;2023-08-07T08:24:45;18.80;97.90
6536;DHT22;34330;52.08032700;5.40923460;2023-08-07T08:27:14;18.90;97.50
6536;DHT22;34330;52.08032700;5.40923460;2023-08-07T08:29:45;18.90;96.60
6536;DHT22;34330;52.08032700;5.40923460;2023-08-07T08:32:13;18.90;96.00
6536;DHT22;34330;52.08032700;5.40923460;2023-08-07T08:34:41;18.90;95.80
6536;DHT22;34330;52.08032700;5.40923460;2023-08-07T08:37:09;18.80;95.40
6536;DHT22;34330;52.08032700;5.40923460;2023-08-07T08:39:38;18.80;95.50
6536;DHT22;34330;52.08032700;5.40923460;2023-08-07T08:42:06;18.80;95.70
6536;DHT22;34330;52.08032700;5.40923460;2023-08-07T08:44:38;18.70;96.00
6536;DHT22;34330;52.08032700;5.40923460;2023-08-07T08:47:09;18.70;96.30
6536;DHT22;34330;52.08032700;5.40923460;2023-08-07T08:49:45;18.70;96.90
6536;DHT22;34330;52.08032700;5.40923460;2023-08-07T08:52:14;18.80;96.80
6536;DHT22;34330;52.08032700;5.40923460;2023-08-07T08:54:43;18.90;96.70
6536;DHT22;34330;52.08032700;5.40923460;2023-08-07T08:57:11;18.90;96.40
6536;DHT22;34330;52.08032700;5.40923460;2023-08-07T08:59:40;19.00;96.70
6536;DHT22;34330;52.08032700;5.40923460;2023-08-07T09:02:10;19.00;96.10
6536;DHT22;34330;52.08032700;5.40923460;2023-08-07T09:04:38;19.10;96.10
6536;DHT22;34330;52.08032700;5.40923460;2023-08-07T09:07:09;19.10;95.90
6536;DHT22;34330;52.08032700;5.40923460;2023-08-07T09:09:37;19.10;95.80
6536;DHT22;34330;52.08032700;5.40923460;2023-08-07T09:12:08;19.10;95.30
6536;DHT22;34330;52.08032700;5.40923460;2023-08-07T09:14:40;19.10;95.30
6536;DHT22;34330;52.08032700;5.40923460;2023-08-07T09:17:10;19.10;95.20
6536;DHT22;34330;52.08032700;5.40923460;2023-08-07T09:19:40;19.00;95.40
6536;DHT22;34330;52.08032700;5.40923460;2023-08-07T09:22:08;19.00;95.20
6536;DHT22;34330;52.08032700;5.40923460;2023-08-07T09:24:37;19.00;95.40
6536;DHT22;34330;52.08032700;5.40923460;2023-08-07T09:27:09;19.00;95.90
6536;DHT22;34330;52.08032700;5.40923460;2023-08-07T09:29:39;19.10;95.80
6536;DHT22;34330;52.08032700;5.40923460;2023-08-07T09:32:11;19.10;95.80
6536;DHT22;34330;52.08032700;5.40923460;2023-08-07T09:34:40;19.20;95.80
6536;DHT22;34330;52.08032700;5.40923460;2023-08-07T09:37:08;19.30;95.60
6536;DHT22;34330;52.08032700;5.40923460;2023-08-07T09:39:37;19.40;95.60
6536;DHT22;34330;52.08032700;5.40923460;2023-08-07T09:42:08;19.50;95.60
6536;DHT22;34330;52.08032700;5.40923460;2023-08-07T09:44:40;19.50;95.70
6536;DHT22;34330;52.08032700;5.40923460;2023-08-07T09:47:13;19.70;95.60
6536;DHT22;34330;52.08032700;5.40923460;2023-08-07T09:49:42;19.80;94.90
6536;DHT22;34330;52.08032700;5.40923460;2023-08-07T09:52:11;19.80;94.90
6536;DHT22;34330;52.08032700;5.40923460;2023-08-07T09:54:41;19.90;94.60
6536;DHT22;34330;52.08032700;5.40923460;2023-08-07T09:57:09;19.90;94.10
6536;DHT22;34330;52.08032700;5.40923460;2023-08-07T09:59:37;19.90;94.00
6536;DHT22;34330;52.08032700;5.40923460;2023-08-07T10:02:05;19.80;92.50
6536;DHT22;34330;52.08032700;5.40923460;2023-08-07T10:04:35;19.80;92.80
6536;DHT22;34330;52.08032700;5.40923460;2023-08-07T10:07:04;19.90;93.10
6536;DHT22;34330;52.08032700;5.40923460;2023-08-07T10:09:32;19.90;93.30
6536;DHT22;34330;52.08032700;5.40923460;2023-08-07T10:12:01;20.00;93.00
6536;DHT22;34330;52.08032700;5.40923460;2023-08-07T10:14:31;20.00;92.50
6536;DHT22;34330;52.08032700;5.40923460;2023-08-07T10:16:59;20.00;92.40
6536;DHT22;34330;52.08032700;5.40923460;2023-08-07T10:19:30;20.00;92.50
6536;DHT22;34330;52.08032700;5.40923460;2023-08-07T10:21:59;19.90;92.50
6536;DHT22;34330;52.08032700;5.40923460;2023-08-07T10:24:29;19.90;93.20
6536;DHT22;34330;52.08032700;5.40923460;2023-08-07T10:27:00;19.80;93.10
6536;DHT22;34330;52.08032700;5.40923460;2023-08-07T10:29:29;19.70;93.60
6536;DHT22;34330;52.08032700;5.40923460;2023-08-07T10:31:58;19.70;93.80
6536;DHT22;34330;52.08032700;5.40923460;2023-08-07T10:34:29;19.70;93.60
6536;DHT22;34330;52.08032700;5.40923460;2023-08-07T10:36:59;19.70;93.60
6536;DHT22;34330;52.08032700;5.40923460;2023-08-07T10:39:26;19.70;93.90
6536;DHT22;34330;52.08032700;5.40923460;2023-08-07T10:41:55;19.70;94.30
6536;DHT22;34330;52.08032700;5.40923460;2023-08-07T10:44:24;19.70;94.60
6536;DHT22;34330;52.08032700;5.40923460;2023-08-07T10:46:54;19.70;94.70
6536;DHT22;34330;52.08032700;5.40923460;2023-08-07T10:49:35;19.80;94.80
6536;DHT22;34330;52.08032700;5.40923460;2023-08-07T10:52:08;19.90;94.60
6536;DHT22;34330;52.08032700;5.40923460;2023-08-07T10:54:38;20.00;93.90
6536;DHT22;34330;52.08032700;5.40923460;2023-08-07T10:57:13;20.10;94.50
6536;DHT22;34330;52.08032700;5.40923460;2023-08-07T10:59:48;20.10;94.20
6536;DHT22;34330;52.08032700;5.40923460;2023-08-07T11:02:23;20.20;94.00
6536;DHT22;34330;52.08032700;5.40923460;2023-08-07T11:04:54;20.30;93.80
6536;DHT22;34330;52.08032700;5.40923460;2023-08-07T11:07:25;20.40;94.00
6536;DHT22;34330;52.08032700;5.40923460;2023-08-07T11:09:55;20.50;93.00
6536;DHT22;34330;52.08032700;5.40923460;2023-08-07T11:12:25;20.60;92.70
6536;DHT22;34330;52.08032700;5.40923460;2023-08-07T11:14:53;20.60;92.00
6536;DHT22;34330;52.08032700;5.40923460;2023-08-07T11:17:24;20.60;91.60
6536;DHT22;34330;52.08032700;5.40923460;2023-08-07T11:19:53;20.60;90.60
6536;DHT22;34330;52.08032700;5.40923460;2023-08-07T11:22:21;20.60;90.60
6536;DHT22;34330;52.08032700;5.40923460;2023-08-07T11:24:50;20.60;91.10
6536;DHT22;34330;52.08032700;5.40923460;2023-08-07T11:27:21;20.50;91.20
6536;DHT22;34330;52.08032700;5.40923460;2023-08-07T11:29:51;20.40;91.30
6536;DHT22;34330;52.08032700;5.40923460;2023-08-07T11:32:21;20.30;91.50
6536;DHT22;34330;52.08032700;5.40923460;2023-08-07T11:34:50;20.30;91.70
6536;DHT22;34330;52.08032700;5.40923460;2023-08-07T11:37:18;20.30;91.70
6536;DHT22;34330;52.08032700;5.40923460;2023-08-07T11:39:46;20.20;91.80
6536;DHT22;34330;52.08032700;5.40923460;2023-08-07T11:42:16;20.20;91.80
6536;DHT22;34330;52.08032700;5.40923460;2023-08-07T11:44:45;20.20;91.60
6536;DHT22;34330;52.08032700;5.40923460;2023-08-07T11:47:14;20.30;92.10
6536;DHT22;34330;52.08032700;5.40923460;2023-08-07T11:49:43;20.30;92.10
6536;DHT22;34330;52.08032700;5.40923460;2023-08-07T11:52:11;20.30;92.20
6536;DHT22;34330;52.08032700;5.40923460;2023-08-07T11:54:40;20.40;92.20
6536;DHT22;34330;52.08032700;5.40923460;2023-08-07T11:57:16;20.50;91.90
6536;DHT22;34330;52.08032700;5.40923460;2023-08-07T11:59:49;20.60;91.00
6536;DHT22;34330;52.08032700;5.40923460;2023-08-07T12:02:23;20.70;90.40
6536;DHT22;34330;52.08032700;5.40923460;2023-08-07T12:04:58;20.70;90.70
6536;DHT22;34330;52.08032700;5.40923460;2023-08-07T12:07:27;20.80;90.40
6536;DHT22;34330;52.08032700;5.40923460;2023-08-07T12:10:01;20.10;90.10
6536;DHT22;34330;52.08032700;5.40923460;2023-08-07T12:12:32;20.90;90.20
6536;DHT22;34330;52.08032700;5.40923460;2023-08-07T12:15:00;20.90;88.90
6536;DHT22;34330;52.08032700;5.40923460;2023-08-07T12:17:31;20.90;89.30
6536;DHT22;34330;52.08032700;5.40923460;2023-08-07T12:19:59;20.50;89.00
6536;DHT22;34330;52.08032700;5.40923460;2023-08-07T12:22:28;20.90;89.40
6536;DHT22;34330;52.08032700;5.40923460;2023-08-07T12:24:56;20.90;87.90
6536;DHT22;34330;52.08032700;5.40923460;2023-08-07T12:27:24;20.90;87.60
6536;DHT22;34330;52.08032700;5.40923460;2023-08-07T12:29:54;20.90;88.40
6536;DHT22;34330;52.08032700;5.40923460;2023-08-07T12:32:22;21.00;87.20
6536;DHT22;34330;52.08032700;5.40923460;2023-08-07T12:34:50;21.00;86.50
6536;DHT22;34330;52.08032700;5.40923460;2023-08-07T12:37:23;21.00;87.40
6536;DHT22;34330;52.08032700;5.40923460;2023-08-07T12:39:51;21.10;85.40
6536;DHT22;34330;52.08032700;5.40923460;2023-08-07T12:42:22;21.40;85.40
6536;DHT22;34330;52.08032700;5.40923460;2023-08-07T12:44:51;21.30;86.00
6536;DHT22;34330;52.08032700;5.40923460;2023-08-07T12:47:20;21.40;85.40
6536;DHT22;34330;52.08032700;5.40923460;2023-08-07T12:49:48;21.40;84.40
6536;DHT22;34330;52.08032700;5.40923460;2023-08-07T12:52:16;21.50;84.50
6536;DHT22;34330;52.08032700;5.40923460;2023-08-07T12:54:44;21.70;85.10
6536;DHT22;34330;52.08032700;5.40923460;2023-08-07T12:57:13;21.80;83.70
6536;DHT22;34330;52.08032700;5.40923460;2023-08-07T12:59:41;21.90;83.30
6536;DHT22;34330;52.08032700;5.40923460;2023-08-07T13:02:09;22.00;81.90
6536;DHT22;34330;52.08032700;5.40923460;2023-08-07T13:04:38;22.00;80.50
6536;DHT22;34330;52.08032700;5.40923460;2023-08-07T13:07:06;22.10;79.40
6536;DHT22;34330;52.08032700;5.40923460;2023-08-07T13:09:34;22.10;80.10
6536;DHT22;34330;52.08032700;5.40923460;2023-08-07T13:12:03;22.10;79.90
6536;DHT22;34330;52.08032700;5.40923460;2023-08-07T13:14:31;22.10;79.30
6536;DHT22;34330;52.08032700;5.40923460;2023-08-07T13:16:59;22.10;77.90
6536;DHT22;34330;52.08032700;5.40923460;2023-08-07T13:19:27;22.10;78.30
6536;DHT22;34330;52.08032700;5.40923460;2023-08-07T13:22:00;22.10;77.80
6536;DHT22;34330;52.08032700;5.40923460;2023-08-07T13:24:28;22.20;78.00
6536;DHT22;34330;52.08032700;5.40923460;2023-08-07T13:26:56;22.20;77.70
6536;DHT22;34330;52.08032700;5.40923460;2023-08-07T13:29:24;22.30;77.80
6536;DHT22;34330;52.08032700;5.40923460;2023-08-07T13:31:53;22.30;78.50
6536;DHT22;34330;52.08032700;5.40923460;2023-08-07T13:34:21;22.40;77.50
6536;DHT22;34330;52.08032700;5.40923460;2023-08-07T13:36:49;22.40;75.50
6536;DHT22;34330;52.08032700;5.40923460;2023-08-07T13:39:19;22.50;76.00
6536;DHT22;34330;52.08032700;5.40923460;2023-08-07T13:41:48;22.50;74.60
6536;DHT22;34330;52.08032700;5.40923460;2023-08-07T13:44:16;22.60;74.70